createdAt,value
2018-12-26T00:01:29.264Z,69.19
2018-12-26T00:04:00.605Z,69.21
2018-12-26T00:06:32.983Z,68.84
2018-12-26T00:09:06.142Z,69.38
2018-12-26T00:11:37.623Z,69.15
2018-12-26T00:14:09.470Z,69.15
2018-12-26T00:16:40.847Z,68.68
2018-12-26T00:19:12.187Z,68.68
2018-12-26T00:21:43.442Z,68.60
2018-12-26T00:24:15.602Z,69.22
2018-12-26T00:26:51.338Z,68.52
2018-12-26T00:29:23.083Z,68.98
2018-12-26T00:31:54.595Z,68.98
2018-12-26T00:34:26.228Z,68.51
2018-12-26T00:36:57.615Z,69.23
2018-12-26T00:39:29.404Z,69.23
2018-12-26T00:42:00.828Z,68.75
2018-12-26T00:44:32.535Z,68.98
2018-12-26T00:47:03.844Z,68.98
2018-12-26T00:49:35.649Z,69.28
2018-12-26T00:52:06.810Z,69.28
2018-12-26T00:54:38.816Z,69.57
2018-12-26T00:57:10.356Z,69.27
2018-12-26T00:59:42.036Z,68.96
2018-12-26T01:02:13.390Z,69.43
2018-12-26T01:04:44.632Z,69.35
2018-12-26T01:07:15.967Z,69.76
2018-12-26T01:09:47.392Z,69.90
2018-12-26T01:12:19.044Z,69.61
2018-12-26T01:14:50.922Z,69.54
2018-12-26T01:17:23.347Z,69.54
2018-12-26T01:19:54.974Z,69.74
2018-12-26T01:22:26.458Z,69.36
2018-12-26T01:24:58.323Z,69.36
2018-12-26T01:27:29.817Z,70.05
2018-12-26T01:30:01.226Z,69.90
2018-12-26T01:32:32.626Z,70.15
2018-12-26T01:35:04.081Z,69.86
2018-12-26T01:37:36.779Z,69.86
2018-12-26T01:40:08.149Z,70.02
2018-12-26T01:42:39.580Z,70.36
2018-12-26T01:45:10.881Z,70.36
2018-12-26T01:47:42.069Z,70.55
2018-12-26T01:50:13.608Z,70.46
2018-12-26T01:52:44.946Z,70.39
2018-12-26T01:55:16.879Z,70.43
2018-12-26T01:57:48.440Z,70.59
2018-12-26T02:00:20.087Z,70.59
2018-12-26T02:02:51.367Z,70.40
2018-12-26T02:05:22.775Z,70.40
2018-12-26T02:07:54.168Z,70.63
2018-12-26T02:10:25.611Z,70.32
2018-12-26T02:12:57.264Z,71.01
2018-12-26T02:15:29.545Z,71.01
2018-12-26T02:18:01.024Z,70.76
2018-12-26T02:20:33.825Z,70.52
2018-12-26T02:23:05.521Z,69.36
2018-12-26T02:25:37.306Z,69.36
2018-12-26T02:28:08.695Z,66.65
2018-12-26T02:30:39.892Z,65.89
2018-12-26T02:33:11.431Z,65.87
2018-12-26T02:35:42.857Z,66.21
2018-12-26T02:38:14.092Z,66.37
2018-12-26T02:40:45.651Z,66.37
2018-12-26T02:43:17.060Z,66.35
2018-12-26T02:45:48.636Z,66.28
2018-12-26T02:48:20.300Z,66.27
2018-12-26T02:50:51.709Z,66.27
2018-12-26T02:53:23.024Z,66.46
2018-12-26T02:55:55.079Z,66.62
2018-12-26T02:58:26.621Z,66.68
2018-12-26T03:00:58.294Z,66.68
2018-12-26T03:03:30.484Z,66.85
2018-12-26T03:06:02.202Z,66.71
2018-12-26T03:08:33.542Z,66.48
2018-12-26T03:11:05.001Z,66.48
2018-12-26T03:13:36.618Z,65.66
2018-12-26T03:16:08.099Z,65.66
2018-12-26T03:18:39.410Z,64.65
2018-12-26T03:21:10.805Z,64.65
2018-12-26T03:23:42.029Z,64.73
2018-12-26T03:26:13.877Z,64.73
2018-12-26T03:28:45.180Z,64.67
2018-12-26T03:31:17.078Z,64.54
2018-12-26T03:33:48.693Z,64.71
2018-12-26T03:36:19.971Z,64.10
2018-12-26T03:38:51.665Z,64.11
2018-12-26T03:41:23.646Z,64.11
2018-12-26T03:43:54.903Z,64.03
2018-12-26T03:46:26.748Z,63.69
2018-12-26T03:48:58.006Z,63.75
2018-12-26T03:51:29.544Z,63.75
2018-12-26T03:54:01.264Z,63.99
2018-12-26T03:56:32.802Z,64.12
2018-12-26T03:59:04.275Z,64.32
2018-12-26T04:01:35.825Z,64.12
2018-12-26T04:04:07.404Z,63.31
2018-12-26T04:06:39.283Z,63.31
2018-12-26T04:09:11.059Z,62.93
2018-12-26T04:11:42.286Z,62.93
2018-12-26T04:14:13.786Z,63.61
2018-12-26T04:16:45.944Z,63.61
2018-12-26T04:19:17.123Z,62.83
2018-12-26T04:21:48.741Z,63.06
2018-12-26T04:24:19.853Z,63.21
2018-12-26T04:26:51.884Z,62.63
2018-12-26T04:29:23.501Z,62.99
2018-12-26T04:31:55.047Z,62.43
2018-12-26T04:34:26.370Z,62.13
2018-12-26T04:36:57.951Z,62.40
2018-12-26T04:39:29.207Z,62.40
2018-12-26T04:42:00.819Z,62.05
2018-12-26T04:44:32.405Z,62.05
2018-12-26T04:47:03.884Z,62.00
2018-12-26T04:49:35.719Z,62.00
2018-12-26T04:52:07.000Z,61.11
2018-12-26T04:54:38.425Z,61.29
2018-12-26T04:57:10.290Z,61.29
2018-12-26T04:59:41.921Z,62.11
2018-12-26T05:02:13.580Z,62.11
2018-12-26T05:04:45.253Z,59.19
2018-12-26T05:07:16.809Z,59.19
2018-12-26T05:09:48.302Z,60.89
2018-12-26T05:12:20.125Z,60.89
2018-12-26T05:14:51.795Z,61.40
2018-12-26T05:17:23.924Z,61.40
2018-12-26T05:19:55.350Z,61.06
2018-12-26T05:22:26.907Z,61.06
2018-12-26T05:24:58.422Z,61.88
2018-12-26T05:27:34.303Z,61.49
2018-12-26T05:30:05.051Z,61.49
2018-12-26T05:32:36.679Z,61.45
2018-12-26T05:35:08.397Z,61.55
2018-12-26T05:37:39.988Z,61.21
2018-12-26T05:40:11.571Z,60.84
2018-12-26T05:42:43.132Z,60.84
2018-12-26T05:45:16.023Z,60.90
2018-12-26T05:47:47.645Z,60.07
2018-12-26T05:50:19.331Z,60.07
2018-12-26T05:52:50.953Z,59.08
2018-12-26T05:55:22.623Z,59.82
2018-12-26T05:57:54.847Z,59.82
2018-12-26T06:00:26.569Z,58.38
2018-12-26T06:02:58.200Z,59.40
2018-12-26T06:05:29.890Z,60.10
2018-12-26T06:08:01.713Z,60.10
2018-12-26T06:10:33.357Z,53.05
2018-12-26T06:13:04.867Z,53.52
2018-12-26T06:15:38.128Z,52.17
2018-12-26T06:18:09.994Z,55.83
2018-12-26T06:20:41.658Z,55.83
2018-12-26T06:23:13.318Z,56.27
2018-12-26T06:25:44.731Z,54.60
2018-12-26T06:28:16.741Z,54.43
2018-12-26T06:30:48.423Z,56.18
2018-12-26T06:33:20.028Z,53.21
2018-12-26T06:35:51.868Z,53.21
2018-12-26T06:38:23.320Z,55.87
2018-12-26T06:40:55.987Z,57.41
2018-12-26T06:43:27.541Z,57.49
2018-12-26T06:46:02.652Z,56.72
2018-12-26T06:48:48.384Z,56.41
2018-12-26T06:51:25.709Z,56.41
2018-12-26T06:53:57.393Z,56.13
2018-12-26T06:56:28.946Z,56.37
2018-12-26T06:59:00.800Z,56.37
2018-12-26T07:01:32.089Z,52.50
2018-12-26T07:04:03.568Z,52.49
2018-12-26T07:06:35.024Z,55.66
2018-12-26T07:09:07.954Z,55.66
2018-12-26T07:11:39.379Z,52.78
2018-12-26T07:14:10.581Z,52.28
2018-12-26T07:16:42.023Z,53.17
2018-12-26T07:19:13.904Z,54.92
2018-12-26T07:21:45.346Z,50.25
2018-12-26T07:24:16.631Z,45.09
2018-12-26T07:26:48.061Z,45.35
2018-12-26T07:29:19.875Z,45.35
2018-12-26T07:31:51.342Z,48.71
2018-12-26T07:34:22.843Z,45.40
2018-12-26T07:36:54.221Z,45.40
2018-12-26T07:39:25.558Z,46.05
2018-12-26T07:41:56.914Z,45.55
2018-12-26T07:44:44.166Z,44.20
2018-12-26T07:47:15.656Z,44.82
2018-12-26T07:49:47.074Z,44.82
2018-12-26T07:52:18.543Z,45.39
2018-12-26T07:54:49.860Z,44.21
2018-12-26T07:57:21.206Z,44.21
2018-12-26T07:59:53.305Z,46.11
2018-12-26T08:02:24.514Z,48.45
2018-12-26T08:04:56.557Z,44.04
2018-12-26T08:07:27.872Z,44.04
2018-12-26T08:09:59.464Z,44.33
2018-12-26T08:12:30.745Z,45.59
2018-12-26T08:15:10.165Z,45.59
2018-12-26T08:17:35.337Z,42.60
2018-12-26T08:20:07.865Z,40.95
2018-12-26T08:22:39.198Z,40.95
2018-12-26T08:25:10.614Z,43.08
2018-12-26T08:27:42.068Z,43.79
2018-12-26T08:30:14.089Z,43.79
2018-12-26T08:32:45.364Z,43.85
2018-12-26T08:35:16.644Z,41.16
2018-12-26T08:37:47.898Z,42.18
2018-12-26T08:40:19.079Z,42.18
2018-12-26T08:42:50.641Z,42.26
2018-12-26T08:45:21.978Z,45.23
2018-12-26T08:47:53.146Z,45.23
2018-12-26T08:50:25.411Z,44.31
2018-12-26T08:52:56.696Z,44.31
2018-12-26T08:55:27.878Z,43.26
2018-12-26T08:58:01.781Z,41.36
2018-12-26T09:00:33.548Z,41.63
2018-12-26T09:03:04.849Z,40.03
2018-12-26T09:05:36.465Z,40.47
2018-12-26T09:08:07.904Z,41.48
2018-12-26T09:10:39.438Z,41.48
2018-12-26T09:13:10.889Z,43.06
2018-12-26T09:15:42.803Z,42.13
2018-12-26T09:18:15.056Z,40.44
2018-12-26T09:20:47.160Z,40.44
2018-12-26T09:23:18.832Z,41.36
2018-12-26T09:25:55.544Z,42.97
2018-12-26T09:28:28.506Z,42.39
2018-12-26T09:31:00.523Z,42.59
2018-12-26T09:33:31.829Z,42.31
2018-12-26T09:36:03.272Z,42.16
2018-12-26T09:38:35.173Z,43.13
2018-12-26T09:41:06.922Z,43.13
2018-12-26T09:43:38.350Z,41.71
2018-12-26T09:46:09.777Z,43.62
2018-12-26T09:48:41.422Z,42.76
2018-12-26T09:51:13.041Z,42.76
2018-12-26T09:53:44.317Z,42.65
2018-12-26T09:56:45.454Z,41.15
2018-12-26T09:59:17.203Z,41.15
2018-12-26T10:01:49.231Z,43.14
2018-12-26T10:04:22.177Z,43.56
2018-12-26T10:06:53.767Z,42.77
2018-12-26T10:09:25.240Z,43.19
2018-12-26T10:11:56.828Z,42.83
2018-12-26T10:14:28.542Z,42.83
2018-12-26T10:17:00.155Z,44.41
2018-12-26T10:19:31.674Z,44.55
2018-12-26T10:22:03.538Z,44.55
2018-12-26T10:24:35.197Z,43.35
2018-12-26T10:27:06.869Z,44.60
2018-12-26T10:29:38.324Z,46.05
2018-12-26T10:32:10.948Z,46.05
2018-12-26T10:34:45.305Z,46.54
2018-12-26T10:37:17.595Z,47.92
2018-12-26T10:39:49.040Z,47.92
2018-12-26T10:42:21.033Z,47.29
2018-12-26T10:44:52.276Z,46.46
2018-12-26T10:47:23.727Z,47.91
2018-12-26T10:49:56.846Z,49.29
2018-12-26T10:52:28.632Z,49.29
2018-12-26T10:55:03.246Z,50.18
2018-12-26T10:57:35.977Z,49.53
2018-12-26T11:00:08.806Z,51.46
2018-12-26T11:02:40.778Z,51.46
2018-12-26T11:05:12.246Z,50.54
2018-12-26T11:07:43.952Z,51.65
2018-12-26T11:10:16.531Z,51.65
2018-12-26T11:12:47.806Z,51.36
2018-12-26T11:15:19.180Z,52.39
2018-12-26T11:17:51.132Z,52.83
2018-12-26T11:20:23.180Z,52.83
2018-12-26T11:22:55.190Z,53.21
2018-12-26T11:25:26.937Z,53.73
2018-12-26T11:27:58.046Z,53.73
2018-12-26T11:30:29.064Z,54.21
2018-12-26T11:33:01.509Z,54.54
2018-12-26T11:35:32.807Z,54.90
2018-12-26T11:38:04.284Z,55.19
2018-12-26T11:40:35.518Z,55.27
2018-12-26T11:43:07.001Z,55.42
2018-12-26T11:45:38.625Z,55.42
2018-12-26T11:48:10.509Z,55.47
2018-12-26T11:50:41.757Z,55.58
2018-12-26T11:53:13.101Z,55.58
2018-12-26T11:55:44.520Z,55.61
2018-12-26T11:58:16.367Z,55.57
2018-12-26T12:00:47.899Z,55.57
2018-12-26T12:03:19.778Z,55.90
2018-12-26T12:05:51.177Z,55.98
2018-12-26T12:08:22.771Z,55.98
2018-12-26T12:10:54.216Z,55.78
2018-12-26T12:13:25.864Z,55.78
2018-12-26T12:15:57.120Z,55.88
2018-12-26T12:18:28.305Z,55.97
2018-12-26T12:21:00.226Z,55.97
2018-12-26T12:23:32.101Z,55.92
2018-12-26T12:26:03.269Z,56.48
2018-12-26T12:28:36.377Z,56.48
2018-12-26T12:31:11.977Z,56.73
2018-12-26T12:33:44.559Z,56.97
2018-12-26T12:36:28.550Z,57.35
2018-12-26T12:39:01.257Z,57.35
2018-12-26T12:41:34.446Z,57.33
2018-12-26T12:44:05.970Z,57.13
2018-12-26T12:46:37.288Z,57.13
2018-12-26T12:49:14.082Z,56.85
2018-12-26T12:51:52.120Z,57.00
2018-12-26T12:54:24.199Z,57.00
2018-12-26T12:56:59.582Z,56.95
2018-12-26T12:59:32.556Z,57.12
2018-12-26T13:02:03.806Z,57.12
2018-12-26T13:04:37.839Z,58.24
2018-12-26T13:07:09.250Z,58.24
2018-12-26T13:09:40.735Z,58.29
2018-12-26T13:12:12.106Z,58.29
2018-12-26T13:14:43.280Z,58.68
2018-12-26T13:17:14.472Z,59.08
2018-12-26T13:19:46.332Z,58.88
2018-12-26T13:22:18.091Z,58.82
2018-12-26T13:24:49.993Z,58.82
2018-12-26T13:27:21.250Z,59.00
2018-12-26T13:29:53.846Z,59.00
2018-12-26T13:32:25.345Z,59.08
2018-12-26T13:34:59.414Z,59.19
2018-12-26T13:37:42.285Z,58.74
2018-12-26T13:40:13.576Z,58.74
2018-12-26T13:42:44.805Z,58.68
2018-12-26T13:45:16.498Z,58.68
2018-12-26T13:47:47.714Z,58.95
2018-12-26T13:50:19.703Z,58.95
2018-12-26T13:52:51.325Z,59.25
2018-12-26T13:55:22.917Z,59.04
2018-12-26T13:57:54.119Z,59.06
2018-12-26T14:00:25.846Z,58.98
2018-12-26T14:02:57.000Z,58.98
2018-12-26T14:05:28.986Z,59.29
2018-12-26T14:08:00.585Z,59.24
2018-12-26T14:10:31.773Z,59.24
2018-12-26T14:13:04.145Z,59.33
2018-12-26T14:15:44.397Z,59.19
2018-12-26T14:18:20.917Z,58.78
2018-12-26T14:20:53.279Z,58.43
2018-12-26T14:23:25.004Z,58.66
2018-12-26T14:25:56.637Z,58.75
2018-12-26T14:28:29.113Z,58.76
2018-12-26T14:31:00.967Z,58.76
2018-12-26T14:33:33.827Z,58.88
2018-12-26T14:36:05.651Z,59.42
2018-12-26T14:38:37.161Z,59.71
2018-12-26T14:41:08.434Z,59.71
2018-12-26T14:43:40.002Z,60.19
2018-12-26T14:46:11.158Z,60.05
2018-12-26T14:48:42.451Z,60.17
2018-12-26T14:51:13.808Z,60.17
2018-12-26T14:53:49.464Z,59.94
2018-12-26T14:56:23.267Z,59.59
2018-12-26T14:58:54.649Z,59.59
2018-12-26T15:01:26.016Z,59.55
2018-12-26T15:03:57.149Z,59.68
2018-12-26T15:06:28.862Z,60.02
2018-12-26T15:09:00.378Z,60.02
2018-12-26T15:11:32.354Z,60.00
2018-12-26T15:14:03.612Z,59.58
2018-12-26T15:16:34.896Z,59.58
2018-12-26T15:19:25.125Z,60.12
2018-12-26T15:21:56.493Z,60.88
2018-12-26T15:24:28.561Z,60.88
2018-12-26T15:27:00.157Z,60.47
2018-12-26T15:29:31.392Z,60.53
2018-12-26T15:32:03.054Z,60.53
2018-12-26T15:34:34.338Z,60.67
2018-12-26T15:37:06.201Z,60.67
2018-12-26T15:39:37.668Z,61.16
2018-12-26T15:42:09.286Z,61.16
2018-12-26T15:44:40.438Z,61.46
2018-12-26T15:47:12.784Z,61.60
2018-12-26T15:49:43.966Z,62.00
2018-12-26T15:52:15.780Z,62.16
2018-12-26T15:54:46.929Z,62.50
2018-12-26T15:57:18.310Z,62.15
2018-12-26T15:59:49.626Z,62.15
2018-12-26T16:02:21.333Z,61.97
2018-12-26T16:04:52.484Z,61.71
2018-12-26T16:07:24.388Z,62.08
2018-12-26T16:09:55.847Z,61.76
2018-12-26T16:12:27.623Z,61.76
2018-12-26T16:14:59.035Z,62.60
2018-12-26T16:17:30.820Z,62.53
2018-12-26T16:20:02.219Z,62.56
2018-12-26T16:22:33.813Z,62.49
2018-12-26T16:25:05.453Z,62.60
2018-12-26T16:27:36.898Z,62.78
2018-12-26T16:30:10.009Z,62.66
2018-12-26T16:32:41.298Z,62.66
2018-12-26T16:35:12.834Z,62.50
2018-12-26T16:37:44.655Z,62.50
2018-12-26T16:40:16.219Z,62.30
2018-12-26T16:42:48.186Z,63.14
2018-12-26T16:45:19.415Z,63.14
2018-12-26T16:47:50.822Z,62.57
2018-12-26T16:50:26.979Z,62.63
2018-12-26T16:52:55.551Z,62.72
2018-12-26T16:55:26.833Z,62.83
2018-12-26T16:57:58.294Z,62.48
2018-12-26T17:00:29.479Z,62.48
2018-12-26T17:03:00.977Z,62.57
2018-12-26T17:05:32.465Z,62.65
2018-12-26T17:08:04.530Z,62.62
2018-12-26T17:10:36.040Z,63.32
2018-12-26T17:13:07.837Z,63.57
2018-12-26T17:15:39.036Z,63.05
2018-12-26T17:18:10.642Z,63.16
2018-12-26T17:20:42.278Z,63.34
2018-12-26T17:23:14.027Z,63.49
2018-12-26T17:25:45.303Z,63.49
2018-12-26T17:28:17.296Z,63.54
2018-12-26T17:30:48.607Z,63.75
2018-12-26T17:33:20.250Z,63.71
2018-12-26T17:35:51.799Z,63.93
2018-12-26T17:38:23.704Z,63.93
2018-12-26T17:40:55.200Z,63.59
2018-12-26T17:43:27.706Z,63.70
2018-12-26T17:45:59.223Z,63.70
2018-12-26T17:48:34.029Z,63.74
2018-12-26T17:51:19.520Z,64.14
2018-12-26T17:54:29.395Z,63.81
2018-12-26T17:57:06.612Z,63.81
2018-12-26T17:59:45.900Z,64.08
2018-12-26T18:02:25.116Z,64.55
2018-12-26T18:04:56.501Z,64.54
2018-12-26T18:07:27.800Z,64.47
2018-12-26T18:09:59.476Z,64.58
2018-12-26T18:12:35.963Z,64.58
2018-12-26T18:15:10.517Z,64.90
2018-12-26T18:17:41.813Z,65.40
2018-12-26T18:20:13.476Z,65.40
2018-12-26T18:22:45.188Z,65.45
2018-12-26T18:25:16.873Z,65.74
2018-12-26T18:27:48.677Z,65.74
2018-12-26T18:30:21.171Z,65.99
2018-12-26T18:32:53.219Z,66.09
2018-12-26T18:35:24.464Z,65.92
2018-12-26T18:37:56.003Z,65.90
2018-12-26T18:40:28.053Z,66.24
2018-12-26T18:42:59.529Z,66.24
2018-12-26T18:45:30.900Z,66.36
2018-12-26T18:48:02.458Z,66.36
2018-12-26T18:50:34.337Z,66.42
2018-12-26T18:53:05.962Z,67.02
2018-12-26T18:55:37.081Z,66.77
2018-12-26T18:58:08.611Z,66.77
2018-12-26T19:00:40.007Z,66.88
2018-12-26T19:03:11.603Z,66.88
2018-12-26T19:05:43.467Z,66.97
2018-12-26T19:08:14.755Z,66.92
2018-12-26T19:10:46.443Z,67.22
2018-12-26T19:13:18.436Z,67.01
2018-12-26T19:15:49.695Z,67.42
2018-12-26T19:18:21.213Z,67.82
2018-12-26T19:20:52.612Z,68.02
2018-12-26T19:23:24.049Z,67.55
2018-12-26T19:25:55.191Z,67.55
2018-12-26T19:28:27.346Z,67.52
2018-12-26T19:30:59.750Z,67.58
2018-12-26T19:33:31.495Z,67.46
2018-12-26T19:36:04.369Z,68.11
2018-12-26T19:38:35.732Z,67.80
2018-12-26T19:41:07.698Z,67.80
2018-12-26T19:43:40.805Z,68.33
2018-12-26T19:46:12.282Z,67.91
2018-12-26T19:48:43.981Z,67.91
2018-12-26T19:51:15.301Z,68.37
2018-12-26T19:53:53.519Z,67.93
2018-12-26T19:56:25.085Z,67.93
2018-12-26T19:58:56.696Z,68.71
2018-12-26T20:01:29.506Z,68.64
2018-12-26T20:04:01.150Z,68.64
2018-12-26T20:06:32.487Z,68.80
2018-12-26T20:09:04.427Z,68.80
2018-12-26T20:11:38.505Z,68.61
2018-12-26T20:14:09.554Z,68.85
2018-12-26T20:16:40.861Z,68.85
2018-12-26T20:19:12.428Z,68.39
2018-12-26T20:21:43.760Z,68.61
2018-12-26T20:24:15.238Z,69.45
2018-12-26T20:26:46.886Z,69.45
2018-12-26T20:29:18.702Z,69.09
2018-12-26T20:31:56.865Z,69.08
2018-12-26T20:34:23.190Z,69.46
2018-12-26T20:36:54.910Z,69.46
2018-12-26T20:39:26.604Z,69.52
2018-12-26T20:41:58.704Z,68.97
2018-12-26T20:44:30.101Z,69.15
2018-12-26T20:47:01.708Z,69.36
2018-12-26T20:49:32.990Z,69.22
2018-12-26T20:52:04.672Z,69.63
2018-12-26T20:54:36.394Z,69.03
2018-12-26T20:57:07.876Z,68.87
2018-12-26T20:59:39.380Z,69.68
2018-12-26T21:02:11.022Z,69.64
2018-12-26T21:04:42.265Z,69.55
2018-12-26T21:07:13.518Z,69.64
2018-12-26T21:09:44.978Z,69.64
2018-12-26T21:12:16.954Z,69.18
2018-12-26T21:14:48.297Z,69.18
2018-12-26T21:17:19.696Z,69.03
2018-12-26T21:19:50.999Z,69.03
2018-12-26T21:22:22.471Z,69.47
2018-12-26T21:24:54.165Z,69.57
2018-12-26T21:27:25.484Z,69.65
2018-12-26T21:29:57.164Z,69.61
2018-12-26T21:32:28.759Z,69.61
2018-12-26T21:35:00.269Z,69.91
2018-12-26T21:37:31.806Z,69.91
2018-12-26T21:40:03.171Z,69.61
2018-12-26T21:42:35.283Z,69.58
2018-12-26T21:45:07.340Z,69.41
2018-12-26T21:47:39.090Z,69.89
2018-12-26T21:50:12.586Z,69.89
2018-12-26T21:52:43.931Z,69.60
2018-12-26T21:55:15.103Z,69.81
2018-12-26T21:57:46.587Z,69.82
2018-12-26T22:00:18.380Z,69.82
2018-12-26T22:02:49.919Z,69.86
2018-12-26T22:05:21.482Z,70.07
2018-12-26T22:07:52.801Z,70.07
2018-12-26T22:10:24.068Z,70.69
2018-12-26T22:12:56.143Z,70.16
2018-12-26T22:15:27.758Z,70.16
2018-12-26T22:17:58.991Z,70.62
2018-12-26T22:20:30.289Z,70.48
2018-12-26T22:23:01.688Z,70.67
2018-12-26T22:25:33.351Z,70.35
2018-12-26T22:28:05.039Z,70.33
2018-12-26T22:30:37.234Z,70.52
2018-12-26T22:33:09.569Z,70.52
2018-12-26T22:35:41.158Z,70.48
2018-12-26T22:38:12.402Z,70.56
2018-12-26T22:40:43.873Z,70.96
2018-12-26T22:43:15.995Z,70.91
2018-12-26T22:45:47.329Z,70.32
2018-12-26T22:48:18.600Z,70.32
2018-12-26T22:50:50.159Z,70.40
2018-12-26T22:53:21.562Z,70.24
2018-12-26T22:55:52.856Z,70.24
2018-12-26T22:58:24.456Z,70.89
2018-12-26T23:00:55.706Z,70.47
2018-12-26T23:03:27.498Z,70.19
2018-12-26T23:05:58.973Z,70.21
2018-12-26T23:08:30.513Z,70.21
2018-12-26T23:11:01.983Z,70.42
2018-12-26T23:13:33.852Z,70.42
2018-12-26T23:16:05.400Z,70.13
2018-12-26T23:18:36.832Z,70.08
2018-12-26T23:21:08.066Z,69.95
2018-12-26T23:23:39.322Z,69.95
2018-12-26T23:26:10.869Z,70.78
2018-12-26T23:28:42.577Z,70.36
2018-12-26T23:31:14.498Z,70.00
2018-12-26T23:33:45.900Z,70.08
2018-12-26T23:36:17.443Z,70.09
2018-12-26T23:38:49.228Z,70.09
2018-12-26T23:41:20.738Z,69.92
2018-12-26T23:43:53.075Z,69.92
2018-12-26T23:46:24.604Z,69.67
2018-12-26T23:48:56.113Z,69.66
2018-12-26T23:51:27.316Z,69.63
2018-12-26T23:53:59.263Z,68.89
2018-12-26T23:56:30.864Z,69.38
2018-12-26T23:59:02.287Z,69.68
